Time;durP1;ratioP1;P1;durP2;ratioP2;P2;SDS_P1;SDS_P2;PMS_P1;PMS_P2;Temp;Humidity;BMP_temperature;BMP_pressure;BME280_temperature;BME280_humidity;BME280_pressure;Samples;Min_cycle;Max_cycle;Signal;HPM_P1;HPM_P2
2021/07/19 00:03:32;;;;;;;11.63;10.53;;;;;;;21.77;100.00;102229.56;1971764;73;30941;-76
2021/07/19 00:09:23;;;;;;;12.83;11.00;;;;;;;21.34;100.00;102232.78;1971375;73;31502;-78
2021/07/19 00:15:17;;;;;;;11.45;10.35;;;;;;;21.63;100.00;102235.91;1971435;73;31086;-76
2021/07/19 00:21:24;;;;;;;11.25;10.20;;;;;;;21.39;100.00;102231.80;1997166;69;31054;-80
2021/07/19 00:27:22;;;;;;;10.85;9.70;;;;;;;21.49;100.00;102230.92;1999343;71;30883;-78
2021/07/19 00:33:31;;;;;;;11.60;10.33;;;;;;;21.66;100.00;102232.41;2045408;69;30976;-79
2021/07/19 00:42:16;;;;;;;9.93;9.03;;;;;;;21.62;100.00;102229.98;2023011;71;30707;-77
2021/07/19 00:45:01;;;;;;;10.20;9.27;;;;;;;21.55;100.00;102235.30;1990732;72;24127;-77
2021/07/19 00:51:15;;;;;;;10.85;9.75;;;;;;;21.70;100.00;102223.53;2015459;70;30907;-76
2021/07/19 00:57:10;;;;;;;9.50;8.50;;;;;;;21.42;100.00;102229.73;1971330;73;30924;-74
2021/07/19 01:03:04;;;;;;;12.10;10.07;;;;;;;20.90;100.00;102237.87;1971462;73;31004;-76
2021/07/19 01:09:17;;;;;;;12.60;11.30;;;;;;;20.91;100.00;102240.95;2013818;71;31069;-77
2021/07/19 01:15:11;;;;;;;12.30;10.98;;;;;;;21.03;100.00;102235.55;1971181;73;31024;-77
2021/07/19 01:21:43;;;;;;;12.80;11.27;;;;;;;21.03;100.00;102242.61;2012332;71;33371;-80
2021/07/19 01:28:18;;;;;;;12.93;10.80;;;;;;;20.81;100.00;102246.84;2016221;71;30893;-77
2021/07/19 01:34:22;;;;;;;12.93;10.73;;;;;;;20.93;100.00;102242.86;2015637;71;31368;-78
2021/07/19 01:40:16;;;;;;;9.78;8.85;;;;;;;21.13;100.00;102226.01;1971662;73;31025;-76
2021/07/19 01:45:49;;;;;;;9.23;8.33;;;;;;;21.31;100.00;102226.34;1971603;73;30923;-75
2021/07/19 01:51:14;;;;;;;9.70;8.77;;;;;;;21.11;100.00;102218.39;1959915;73;30998;-75
2021/07/19 01:56:43;;;;;;;9.43;8.53;;;;;;;21.07;100.00;102212.55;1972048;73;31508;-76
2021/07/19 02:02:10;;;;;;;9.30;8.35;;;;;;;21.25;100.00;102201.64;1971280;73;31044;-74
2021/07/19 02:07:35;;;;;;;8.78;7.95;;;;;;;21.11;100.00;102201.43;1971109;73;30975;-76
2021/07/19 02:13:02;;;;;;;9.27;8.37;;;;;;;21.21;100.00;102196.96;1971900;73;30923;-76
2021/07/19 02:18:28;;;;;;;8.20;7.40;;;;;;;21.06;100.00;102198.16;1971844;73;30986;-76
2021/07/19 02:24:26;;;;;;;8.60;7.80;;;;;;;20.92;100.00;102190.95;1970992;73;31053;-74
2021/07/19 02:30:18;;;;;;;7.97;7.17;;;;;;;20.94;100.00;102198.50;1971067;73;30955;-76
2021/07/19 02:36:10;;;;;;;8.17;7.03;;;;;;;20.84;100.00;102201.84;1971136;73;30981;-74
2021/07/19 02:42:16;;;;;;;7.90;7.10;;;;;;;20.81;100.00;102202.50;1971584;73;31016;-75
2021/07/19 02:48:09;;;;;;;7.37;6.67;;;;;;;20.93;100.00;102192.02;1970994;73;30920;-74
2021/07/19 02:53:55;;;;;;;8.08;7.37;;;;;;;20.70;100.00;102188.97;1970955;73;30957;-76
2021/07/19 02:59:49;;;;;;;8.27;7.53;;;;;;;20.35;100.00;102197.16;1971000;73;31001;-75
2021/07/19 03:05:37;;;;;;;7.70;6.83;;;;;;;20.50;100.00;102188.04;1971201;73;31015;-77
2021/07/19 03:11:05;;;;;;;8.03;6.47;;;;;;;20.59;100.00;102192.61;1971165;73;30956;-77
2021/07/19 03:16:50;;;;;;;8.50;7.60;;;;;;;20.38;100.00;102195.09;1971205;73;33509;-79
2021/07/19 03:22:40;;;;;;;7.30;6.60;;;;;;;19.79;100.00;102200.38;1959665;71;31040;-77
2021/07/19 03:28:31;;;;;;;8.23;7.50;;;;;;;19.66;100.00;102202.63;1971053;73;31077;-79
2021/07/19 03:33:57;;;;;;;7.37;6.70;;;;;;;19.69;100.00;102196.35;1971215;73;30973;-74
2021/07/19 03:39:28;;;;;;;8.10;6.90;;;;;;;19.65;100.00;102195.31;1971183;73;30955;-74
2021/07/19 03:44:59;;;;;;;7.93;7.23;;;;;;;19.72;100.00;102190.11;1971160;73;30942;-74
2021/07/19 03:50:28;;;;;;;7.90;7.07;;;;;;;19.87;100.00;102194.56;1971532;73;30985;-79
2021/07/19 03:55:57;;;;;;;7.63;6.77;;;;;;;19.91;100.00;102182.33;1971252;73;30921;-77
2021/07/19 04:01:29;;;;;;;8.63;7.83;;;;;;;19.93;100.00;102183.44;1911273;72;39551;-79
2021/07/19 04:06:59;;;;;;;8.80;8.00;;;;;;;20.06;100.00;102174.12;1971995;73;30986;-75
2021/07/19 04:12:28;;;;;;;7.17;6.47;;;;;;;19.91;100.00;102180.92;1971490;73;31522;-77
2021/07/19 04:17:58;;;;;;;8.00;6.63;;;;;;;19.35;100.00;102184.62;1971226;73;30972;-77
2021/07/19 04:23:29;;;;;;;7.83;7.03;;;;;;;19.15;100.00;102185.03;1971032;73;30926;-79
2021/07/19 04:29:17;;;;;;;8.37;7.50;;;;;;;19.18;100.00;102181.58;1971431;72;31478;-77
2021/07/19 04:35:01;;;;;;;7.80;6.90;;;;;;;19.52;100.00;102185.70;1971211;72;30920;-79
2021/07/19 04:40:27;;;;;;;8.70;7.90;;;;;;;19.62;100.00;102188.90;1971101;73;31039;-79
2021/07/19 04:45:52;;;;;;;9.47;8.50;;;;;;;19.69;100.00;102186.48;1971386;73;33416;-76
2021/07/19 04:51:17;;;;;;;8.70;7.57;;;;;;;19.66;100.00;102182.89;1972140;73;31136;-76
2021/07/19 04:56:45;;;;;;;9.43;8.37;;;;;;;19.77;100.00;102183.49;1971495;73;30913;-77
2021/07/19 05:02:14;;;;;;;9.47;8.67;;;;;;;19.78;100.00;102186.58;1971197;73;31004;-77
2021/07/19 05:07:41;;;;;;;9.07;7.97;;;;;;;19.84;100.00;102187.58;1971857;73;31157;-76
2021/07/19 05:13:10;;;;;;;9.33;8.33;;;;;;;19.85;100.00;102194.87;1972171;73;31519;-76
2021/07/19 05:18:43;;;;;;;9.30;8.00;;;;;;;19.98;100.00;102194.62;1971658;73;30922;-76
2021/07/19 05:24:11;;;;;;;9.77;8.33;;;;;;;19.99;100.00;102196.27;1971323;73;30964;-80
2021/07/19 05:29:37;;;;;;;8.70;7.90;;;;;;;20.14;100.00;102190.86;1971139;73;30926;-78
2021/07/19 05:35:08;;;;;;;8.57;7.70;;;;;;;20.17;100.00;102198.11;1971436;73;33391;-79
2021/07/19 05:40:41;;;;;;;8.37;7.50;;;;;;;20.14;100.00;102189.45;1971017;73;31007;-76
2021/07/19 05:46:09;;;;;;;8.20;7.40;;;;;;;20.51;100.00;102193.95;1971224;73;31042;-73
2021/07/19 05:51:34;;;;;;;9.30;8.50;;;;;;;20.40;100.00;102184.91;1971148;73;30988;-75
2021/07/19 05:56:58;;;;;;;9.77;8.73;;;;;;;20.54;100.00;102190.51;1971109;73;31607;-74
2021/07/19 06:02:23;;;;;;;10.57;9.60;;;;;;;20.69;100.00;102186.72;1970941;73;31065;-75
2021/07/19 06:07:49;;;;;;;12.17;10.97;;;;;;;20.90;100.00;102187.86;1971336;73;31098;-77
2021/07/19 06:13:34;;;;;;;10.47;9.47;;;;;;;21.00;100.00;102182.52;2015429;71;30959;-76
2021/07/19 06:19:02;;;;;;;10.57;9.60;;;;;;;21.02;100.00;102179.35;1972145;73;31476;-75
2021/07/19 06:24:26;;;;;;;11.27;10.17;;;;;;;21.07;100.00;102175.82;1971373;73;31565;-76
2021/07/19 06:29:51;;;;;;;11.77;10.57;;;;;;;21.16;100.00;102170.25;1972126;73;31454;-76
2021/07/19 06:35:15;;;;;;;11.60;10.40;;;;;;;21.20;100.00;102168.44;1972086;73;31541;-75
2021/07/19 06:40:40;;;;;;;12.00;10.80;;;;;;;21.34;100.00;102172.84;1971059;73;30994;-77
2021/07/19 06:46:04;;;;;;;11.20;10.13;;;;;;;21.44;100.00;102173.10;1971240;73;31666;-74
2021/07/19 06:51:29;;;;;;;10.85;9.80;;;;;;;21.54;100.00;102167.73;1956913;73;31036;-76
2021/07/19 06:56:52;;;;;;;11.30;10.20;;;;;;;21.65;100.00;102167.71;1970841;73;30952;-73
2021/07/19 07:02:17;;;;;;;12.33;11.12;;;;;;;21.74;100.00;102172.78;1970809;73;30962;-72
2021/07/19 07:07:49;;;;;;;11.40;10.07;;;;;;;21.84;100.00;102172.48;1970915;73;31119;-72
2021/07/19 07:13:14;;;;;;;11.20;10.20;;;;;;;21.94;100.00;102180.70;1970991;72;31001;-71
2021/07/19 07:18:38;;;;;;;11.28;10.28;;;;;;;21.95;100.00;102182.35;1972290;73;31410;-75
2021/07/19 07:24:04;;;;;;;11.10;10.10;;;;;;;22.13;100.00;102184.05;1970854;73;31447;-82
2021/07/19 07:29:29;;;;;;;12.47;11.15;;;;;;;22.27;100.00;102173.99;1971006;72;31559;-75
2021/07/19 07:35:15;;;;;;;11.43;10.32;;;;;;;22.48;100.00;102176.98;2015062;71;30866;-82
2021/07/19 07:40:41;;;;;;;12.15;10.95;;;;;;;22.64;100.00;102171.05;1971433;73;31012;-73
2021/07/19 07:46:07;;;;;;;13.32;12.03;;;;;;;22.95;100.00;102168.87;1971857;73;31484;-77
2021/07/19 07:51:34;;;;;;;11.60;10.40;;;;;;;23.39;100.00;102163.89;1956422;73;31062;-76
2021/07/19 07:56:58;;;;;;;11.45;10.35;;;;;;;23.88;100.00;102156.63;1972301;73;31045;-79
2021/07/19 08:02:24;;;;;;;12.15;11.03;;;;;;;24.17;100.00;102159.48;1971179;73;31130;-72
2021/07/19 08:07:50;;;;;;;11.80;10.60;;;;;;;24.38;100.00;102148.11;1972094;73;31521;-76
2021/07/19 08:13:15;;;;;;;11.05;9.90;;;;;;;24.66;100.00;102148.33;1972172;73;30958;-76
2021/07/19 08:18:39;;;;;;;11.30;10.23;;;;;;;24.69;100.00;102147.66;1971216;73;31073;-79
2021/07/19 08:24:06;;;;;;;10.15;9.20;;;;;;;24.81;100.00;102143.42;1970945;73;30963;-73
2021/07/19 08:29:31;;;;;;;10.63;9.73;;;;;;;24.93;100.00;102144.31;1971024;73;31475;-79
2021/07/19 08:34:57;;;;;;;9.95;9.03;;;;;;;25.35;100.00;102143.55;1972126;73;30935;-76
2021/07/19 08:40:22;;;;;;;9.58;8.55;;;;;;;25.39;100.00;102142.24;1971047;73;31592;-73
2021/07/19 08:45:49;;;;;;;8.88;7.90;;;;;;;25.34;100.00;102134.77;1972025;73;31047;-75
2021/07/19 08:51:14;;;;;;;9.08;8.28;;;;;;;25.72;100.00;102134.44;1971117;73;31198;-72
2021/07/19 08:56:41;;;;;;;9.08;8.20;;;;;;;25.83;100.00;102129.09;1971127;73;31581;-85
2021/07/19 09:02:08;;;;;;;9.93;8.93;;;;;;;25.80;100.00;102124.13;1971898;73;31000;-76
2021/07/19 09:07:34;;;;;;;8.65;7.80;;;;;;;26.03;100.00;102117.30;1972194;73;31524;-77
2021/07/19 09:13:00;;;;;;;10.10;8.70;;;;;;;26.23;100.00;102110.02;1971224;73;31166;-83
2021/07/19 09:18:33;;;;;;;8.60;7.75;;;;;;;26.13;100.00;102099.72;1971159;73;31150;-81
2021/07/19 09:24:07;;;;;;;9.68;8.68;;;;;;;26.26;100.00;102105.05;1971243;73;32446;-78
2021/07/19 09:29:37;;;;;;;9.73;8.83;;;;;;;26.15;100.00;102103.85;1971108;73;30999;-82
2021/07/19 09:35:12;;;;;;;10.68;8.95;;;;;;;26.24;100.00;102103.73;1971227;73;31067;-74
2021/07/19 09:40:39;;;;;;;8.93;8.08;;;;;;;26.16;100.00;102110.38;1970986;73;31041;-74
2021/07/19 09:46:16;;;;;;;9.10;8.30;;;;;;;26.29;100.00;102107.76;1972132;73;31045;-79
2021/07/19 09:51:43;;;;;;;12.33;8.80;;;;;;;25.97;100.00;102103.09;1971265;73;30987;-73
2021/07/19 09:57:12;;;;;;;9.30;8.35;;;;;;;26.07;100.00;102104.00;1971202;73;31009;-73
2021/07/19 10:02:47;;;;;;;10.65;9.65;;;;;;;25.91;100.00;102101.67;1972279;73;31974;-79
2021/07/19 10:08:24;;;;;;;9.28;8.48;;;;;;;26.10;100.00;102095.55;1971500;73;31455;-83
2021/07/19 10:13:50;;;;;;;9.40;8.50;;;;;;;26.69;100.00;102084.89;1971290;73;31022;-74
2021/07/19 10:19:16;;;;;;;11.33;8.40;;;;;;;26.97;100.00;102089.95;1972743;72;30925;-79
2021/07/19 10:24:41;;;;;;;9.28;8.03;;;;;;;27.39;100.00;102080.83;1972881;73;31496;-79
2021/07/19 10:30:13;;;;;;;9.93;9.00;;;;;;;27.22;100.00;102095.47;1971509;73;31440;-76
2021/07/19 10:34:28;;;;;;;9.60;8.38;;;;;;;27.09;100.00;102084.16;2060651;69;31132;-81
2021/07/19 10:37:02;;;;;;;8.98;8.18;;;;;;;27.17;100.00;102103.12;1950193;73;25666;-74
2021/07/19 10:39:38;;;;;;;8.15;7.55;;;;;;;27.03;100.00;102099.91;2030170;71;24117;-84
2021/07/19 10:42:10;;;;;;;10.88;8.05;;;;;;;27.04;100.00;102103.59;2030252;71;25147;-81
2021/07/19 10:44:43;;;;;;;12.03;9.18;;;;;;;26.56;100.00;102097.55;2030301;70;24168;-74
2021/07/19 10:47:16;;;;;;;10.15;9.08;;;;;;;26.54;100.00;102099.92;2030124;71;25255;-81
2021/07/19 10:49:57;;;;;;;9.18;8.30;;;;;;;26.92;100.00;102090.82;1992143;71;24103;-74
2021/07/19 10:52:36;;;;;;;11.85;8.10;;;;;;;27.06;100.00;102086.92;2030224;71;25213;-74
2021/07/19 10:55:10;;;;;;;9.25;8.18;;;;;;;27.05;100.00;102078.97;2030098;71;24182;-82
2021/07/19 10:57:48;;;;;;;9.55;8.03;;;;;;;27.33;100.00;102078.88;2030114;71;25263;-75
2021/07/19 11:00:29;;;;;;;8.28;7.58;;;;;;;27.48;100.00;102083.75;2029869;71;24176;-75
2021/07/19 11:03:09;;;;;;;8.38;7.67;;;;;;;27.50;100.00;102076.25;2030003;71;24170;-82
2021/07/19 11:05:44;;;;;;;9.00;8.05;;;;;;;27.38;100.00;102074.31;2030171;71;24120;-82
2021/07/19 11:08:27;;;;;;;10.98;8.58;;;;;;;26.71;100.00;102081.89;2029830;71;25206;-75
2021/07/19 11:10:59;;;;;;;9.25;8.05;;;;;;;26.22;100.00;102084.77;2030009;71;24532;-75
2021/07/19 11:13:32;;;;;;;8.65;7.85;;;;;;;26.20;100.00;102080.02;2030037;71;24167;-83
2021/07/19 11:16:04;;;;;;;8.95;8.00;;;;;;;26.35;100.00;102072.72;2030011;71;25471;-74
2021/07/19 11:18:34;;;;;;;8.98;8.08;;;;;;;26.22;100.00;102071.36;2027501;71;25191;-75
2021/07/19 11:21:05;;;;;;;8.40;7.60;;;;;;;26.03;100.00;102078.85;2017032;71;25235;-75
2021/07/19 11:23:37;;;;;;;9.00;8.20;;;;;;;26.12;100.00;102066.72;1993128;72;25217;-75
2021/07/19 11:26:09;;;;;;;8.15;7.45;;;;;;;26.20;100.00;102068.63;1993195;72;24616;-85
2021/07/19 11:28:43;;;;;;;7.97;6.35;;;;;;;26.27;100.00;102062.52;1991123;72;25278;-75
2021/07/19 11:31:16;;;;;;;8.50;7.70;;;;;;;26.28;100.00;102057.66;1993287;72;24205;-85
2021/07/19 11:33:50;;;;;;;8.50;7.70;;;;;;;26.15;100.00;102063.97;1992870;70;24666;-75
2021/07/19 11:39:23;;;;;;;7.90;7.10;;;;;;;26.00;100.00;102051.11;1971194;73;31995;-75
2021/07/19 11:45:07;;;;;;;8.80;8.08;;;;;;;26.13;100.00;102049.28;1972125;73;31483;-79
2021/07/19 11:50:39;;;;;;;9.15;7.90;;;;;;;26.12;100.00;102032.55;1971282;73;31147;-82
2021/07/19 11:56:08;;;;;;;11.48;8.58;;;;;;;26.14;100.00;102035.25;1971309;73;31901;-82
2021/07/19 12:01:37;;;;;;;9.98;9.08;;;;;;;25.88;100.00;102042.02;1971066;73;32377;-83
2021/07/19 12:07:03;;;;;;;10.98;9.88;;;;;;;25.92;100.00;102032.16;1970929;73;32001;-74
2021/07/19 12:12:29;;;;;;;11.93;10.82;;;;;;;26.14;100.00;102031.60;1970821;73;31981;-74
2021/07/19 12:17:57;;;;;;;7.42;6.80;;;;;;;26.43;100.00;102022.70;1972289;73;31060;-80
2021/07/19 12:23:22;;;;;;;7.62;7.03;;;;;;;26.73;100.00;102009.67;1972040;73;32051;-79
2021/07/19 12:28:56;;;;;;;9.05;8.18;;;;;;;26.91;100.00;102005.06;1971394;73;31622;-88
2021/07/19 12:34:28;;;;;;;9.10;8.30;;;;;;;26.60;100.00;102007.27;1971236;73;30978;-85
2021/07/19 12:39:56;;;;;;;8.80;8.00;;;;;;;26.69;100.00;102010.77;1972195;73;31447;-79
2021/07/19 12:45:22;;;;;;;9.30;8.40;;;;;;;26.88;100.00;102000.91;1972483;73;31910;-80
2021/07/19 12:50:47;;;;;;;8.98;8.28;;;;;;;27.51;100.00;102004.50;1969241;71;31434;-80
2021/07/19 12:56:14;;;;;;;7.90;7.20;;;;;;;27.56;100.00;101990.53;1972495;73;31022;-80
2021/07/19 13:01:50;;;;;;;8.40;7.58;;;;;;;27.82;100.00;101996.42;1972533;73;31420;-80
2021/07/19 13:07:27;;;;;;;8.18;7.40;;;;;;;28.10;100.00;101987.67;1972213;73;31987;-80
2021/07/19 13:12:59;;;;;;;7.08;6.47;;;;;;;27.96;100.00;101986.73;1972650;72;30923;-80
2021/07/19 13:18:25;;;;;;;7.85;7.25;;;;;;;28.92;100.00;101984.31;1972654;73;30979;-80
2021/07/19 13:23:58;;;;;;;7.95;7.10;;;;;;;28.45;100.00;101988.97;1971325;73;31530;-84
2021/07/19 13:29:30;;;;;;;7.67;7.08;;;;;;;28.51;100.00;101978.25;1971999;73;30932;-80
2021/07/19 13:35:09;;;;;;;8.03;7.08;;;;;;;28.14;100.00;101979.99;1971315;73;30979;-74
2021/07/19 13:40:43;;;;;;;6.65;6.15;;;;;;;28.34;100.00;101980.17;1971455;73;31041;-73
2021/07/19 13:46:12;;;;;;;6.83;6.22;;;;;;;28.15;100.00;101977.37;1971544;73;31526;-85
2021/07/19 13:51:37;;;;;;;6.97;6.37;;;;;;;28.52;100.00;101973.36;1971167;73;30973;-74
2021/07/19 13:57:03;;;;;;;6.55;5.87;;;;;;;28.42;100.00;101991.12;1971440;73;31432;-76
2021/07/19 14:02:29;;;;;;;6.60;6.00;;;;;;;28.14;100.00;101995.70;1971140;73;30944;-73
2021/07/19 14:07:54;;;;;;;6.85;6.15;;;;;;;28.21;100.00;101984.41;1972176;73;31004;-80
2021/07/19 14:13:18;;;;;;;5.53;5.05;;;;;;;28.31;100.00;101973.80;1971166;73;31553;-73
2021/07/19 14:18:44;;;;;;;6.37;5.83;;;;;;;28.44;100.00;101955.86;1971312;73;31710;-82
2021/07/19 14:24:09;;;;;;;5.65;5.15;;;;;;;28.66;100.00;101957.90;1971981;73;31024;-80
2021/07/19 14:29:34;;;;;;;5.62;5.12;;;;;;;28.13;100.00;101961.78;1972285;73;31517;-79
2021/07/19 14:34:59;;;;;;;6.92;5.70;;;;;;;28.29;100.00;101955.36;1971313;73;31503;-83
2021/07/19 14:40:25;;;;;;;5.83;5.33;;;;;;;28.22;100.00;101958.09;1971286;73;31486;-74
2021/07/19 14:45:49;;;;;;;5.78;5.20;;;;;;;28.07;100.00;101944.08;1972373;73;31500;-77
2021/07/19 14:51:17;;;;;;;6.80;5.60;;;;;;;28.26;100.00;101929.80;1959493;73;31517;-79
2021/07/19 14:56:41;;;;;;;5.47;5.08;;;;;;;28.25;100.00;101918.14;1972029;73;31029;-77
2021/07/19 15:02:06;;;;;;;7.33;4.90;;;;;;;28.15;100.00;101923.08;1972118;73;30946;-78
2021/07/19 15:07:31;;;;;;;7.20;4.95;;;;;;;28.06;100.00;101916.74;1972265;73;31454;-78
2021/07/19 15:12:58;;;;;;;5.45;4.55;;;;;;;28.05;100.00;101910.80;1970768;73;31010;-80
2021/07/19 15:18:24;;;;;;;5.28;4.78;;;;;;;28.50;100.00;101900.83;1970863;73;31592;-73
2021/07/19 15:23:56;;;;;;;4.90;4.50;;;;;;;28.20;100.00;101907.02;1971002;72;31066;-73
2021/07/19 15:29:20;;;;;;;4.85;4.45;;;;;;;28.52;100.00;101891.88;1970941;73;31026;-75
2021/07/19 15:34:46;;;;;;;4.92;4.42;;;;;;;28.66;100.00;101887.84;1972199;73;30931;-78
2021/07/19 15:40:19;;;;;;;5.47;4.50;;;;;;;28.63;100.00;101891.44;1971224;73;31522;-80
2021/07/19 15:45:45;;;;;;;4.75;4.35;;;;;;;28.70;100.00;101890.78;1972037;73;30938;-78
2021/07/19 15:51:09;;;;;;;5.20;4.58;;;;;;;28.70;100.00;101880.17;1971372;73;30992;-74
2021/07/19 15:56:34;;;;;;;7.75;6.90;;;;;;;28.97;100.00;101873.81;1971078;73;32484;-74
2021/07/19 16:02:01;;;;;;;4.67;4.17;;;;;;;28.66;100.00;101872.71;1971156;73;31582;-74
2021/07/19 16:07:26;;;;;;;5.22;4.42;;;;;;;28.75;100.00;101865.55;1971004;73;32067;-73
2021/07/19 16:12:51;;;;;;;6.87;4.80;;;;;;;28.92;100.00;101873.55;1971021;73;30972;-73
2021/07/19 16:18:17;;;;;;;5.58;5.08;;;;;;;28.88;100.00;101875.53;1971115;73;31434;-73
2021/07/19 16:23:45;;;;;;;5.20;4.35;;;;;;;28.62;100.00;101864.08;1970762;73;31057;-73
2021/07/19 16:29:11;;;;;;;4.87;4.30;;;;;;;28.91;100.00;101865.37;1972263;73;31980;-79
2021/07/19 16:34:58;;;;;;;4.80;4.10;;;;;;;28.88;100.00;101862.66;1972280;73;31487;-80
2021/07/19 16:40:36;;;;;;;7.45;4.90;;;;;;;29.17;100.00;101855.93;1972089;73;31909;-80
2021/07/19 16:46:08;;;;;;;5.15;4.28;;;;;;;29.02;100.00;101859.78;1971057;73;31073;-84
2021/07/19 16:51:32;;;;;;;5.00;4.22;;;;;;;29.12;100.00;101852.80;1956392;73;31916;-79
2021/07/19 16:56:58;;;;;;;5.00;4.00;;;;;;;29.15;100.00;101854.88;1972008;72;31007;-80
2021/07/19 17:02:23;;;;;;;5.45;4.58;;;;;;;28.83;100.00;101857.89;1961186;72;86177;-80
2021/07/19 17:08:01;;;;;;;4.53;4.12;;;;;;;28.87;100.00;101853.87;1971078;73;31988;-80
2021/07/19 17:13:30;;;;;;;5.58;3.98;;;;;;;28.79;100.00;101849.87;1972175;73;30941;-84
2021/07/19 17:18:58;;;;;;;4.42;3.95;;;;;;;28.55;100.00;101847.39;1970865;73;31038;-78
2021/07/19 17:24:23;;;;;;;4.60;4.20;;;;;;;28.36;100.00;101845.47;1971148;72;31454;-75
2021/07/19 17:29:55;;;;;;;4.55;4.08;;;;;;;28.27;100.00;101844.91;1970833;73;31489;-79
2021/07/19 17:35:22;;;;;;;4.12;3.72;;;;;;;28.11;100.00;101844.22;1970964;73;31492;-77
2021/07/19 17:40:47;;;;;;;5.75;4.10;;;;;;;27.98;100.00;101838.62;1970955;72;31475;-75
2021/07/19 17:46:13;;;;;;;4.42;3.50;;;;;;;28.13;100.00;101835.47;1970919;73;31107;-80
2021/07/19 17:51:42;;;;;;;4.35;3.95;;;;;;;28.19;100.00;101840.27;1971209;73;31958;-80
2021/07/19 17:55:02;;;;;;;6.17;4.30;;;;;;;28.14;100.00;101842.84;1933865;74;24673;-77
2021/07/19 18:00:38;;;;;;;5.10;4.60;;;;;;;28.12;100.00;101843.81;1971194;73;31585;-75
2021/07/19 18:06:03;;;;;;;5.45;4.95;;;;;;;28.04;100.00;101847.72;1970860;73;31072;-81
2021/07/19 18:11:30;;;;;;;6.22;5.62;;;;;;;27.91;100.00;101857.67;1973015;73;30967;-82
2021/07/19 18:16:57;;;;;;;8.40;6.10;;;;;;;28.01;100.00;101865.03;1970876;73;31311;-80
2021/07/19 18:22:31;;;;;;;7.05;5.97;;;;;;;28.08;100.00;101865.15;1970645;73;31013;-75
2021/07/19 18:33:42;;;;;;;7.62;6.85;;;;;;;28.14;100.00;101859.16;1970841;73;32214;-73
2021/07/19 18:39:06;;;;;;;8.05;7.30;;;;;;;27.96;100.00;101859.63;1970543;73;30920;-80
2021/07/19 18:44:33;;;;;;;7.90;7.17;;;;;;;27.90;100.00;101863.16;1972385;73;30966;-81
2021/07/19 18:49:58;;;;;;;8.38;7.03;;;;;;;27.63;100.00;101867.95;1970759;73;31027;-74
2021/07/19 18:55:26;;;;;;;7.87;7.00;;;;;;;27.59;100.00;101876.45;1972530;73;30921;-81
2021/07/19 19:00:51;;;;;;;7.50;6.70;;;;;;;27.47;100.00;101877.18;1970901;73;32554;-76
2021/07/19 19:06:16;;;;;;;8.30;7.50;;;;;;;27.36;100.00;101877.53;1972524;73;30925;-79
2021/07/19 19:11:41;;;;;;;7.70;6.67;;;;;;;27.21;100.00;101883.55;1972301;73;31030;-79
2021/07/19 19:17:07;;;;;;;8.93;6.28;;;;;;;27.14;100.00;101884.20;1970832;73;31586;-78
2021/07/19 19:22:34;;;;;;;7.12;6.00;;;;;;;26.90;100.00;101885.05;1972687;73;31436;-79
2021/07/19 19:28:00;;;;;;;7.35;6.70;;;;;;;26.86;100.00;101879.87;1970647;73;31428;-73
2021/07/19 19:33:28;;;;;;;7.40;6.70;;;;;;;26.76;100.00;101851.89;1972470;73;30933;-78
2021/07/19 19:38:55;;;;;;;6.97;6.28;;;;;;;26.78;100.00;101870.89;1970854;73;31969;-75
2021/07/19 19:44:19;;;;;;;7.78;6.33;;;;;;;26.72;100.00;101870.34;1972533;73;32041;-83
2021/07/19 19:49:44;;;;;;;7.97;6.15;;;;;;;26.57;100.00;101872.63;1970698;73;31971;-74
2021/07/19 19:55:13;;;;;;;7.03;6.12;;;;;;;26.44;100.00;101878.20;2063368;69;31325;-78
2021/07/19 20:00:41;;;;;;;6.62;5.97;;;;;;;26.19;100.00;101874.66;1970456;73;32021;-72
2021/07/19 20:06:11;;;;;;;6.62;6.03;;;;;;;26.14;100.00;101878.59;1970749;73;31105;-74
2021/07/19 20:11:39;;;;;;;6.60;5.97;;;;;;;26.00;100.00;101880.25;1970607;73;31534;-73
2021/07/19 20:17:06;;;;;;;6.42;5.75;;;;;;;25.92;100.00;101886.36;1970768;73;31959;-84
2021/07/19 20:22:38;;;;;;;7.05;6.40;;;;;;;25.75;100.00;101890.95;1942015;73;31061;-75
2021/07/19 20:28:07;;;;;;;7.08;6.37;;;;;;;25.55;100.00;101896.23;1970552;73;31052;-76
2021/07/19 20:33:35;;;;;;;7.72;7.03;;;;;;;25.36;100.00;101896.30;1970711;73;31890;-72
2021/07/19 20:39:01;;;;;;;9.63;8.50;;;;;;;25.23;100.00;101905.22;1970574;72;31568;-75
2021/07/19 20:44:34;;;;;;;12.18;10.95;;;;;;;24.98;100.00;101914.98;1970436;73;31104;-76
2021/07/19 20:49:53;;;;;;;24.60;19.35;;;;;;;25.02;100.00;101910.23;1941857;74;30937;-81
2021/07/19 20:55:21;;;;;;;25.05;19.17;;;;;;;24.86;100.00;101910.95;1972409;73;31070;-78
2021/07/19 21:00:47;;;;;;;19.98;16.37;;;;;;;24.63;100.00;101914.02;1972442;73;30966;-78
2021/07/19 21:06:13;;;;;;;27.35;18.82;;;;;;;24.52;100.00;101917.08;1972276;73;31941;-78
2021/07/19 21:11:39;;;;;;;27.22;19.50;;;;;;;24.50;100.00;101922.30;1970779;73;31031;-84
2021/07/19 21:17:05;;;;;;;22.85;17.73;;;;;;;24.37;100.00;101934.25;1971185;73;30966;-90
2021/07/19 21:22:29;;;;;;;17.20;14.30;;;;;;;24.04;100.00;101932.02;1944247;73;31142;-90
2021/07/19 21:27:56;;;;;;;15.68;12.47;;;;;;;23.75;100.00;101950.56;1972390;73;31122;-78
2021/07/19 21:33:23;;;;;;;12.18;10.48;;;;;;;23.48;100.00;101954.24;1971248;73;31020;-92
2021/07/19 21:38:50;;;;;;;11.63;9.18;;;;;;;23.57;100.00;101954.17;1972412;73;30959;-78
2021/07/19 21:44:15;;;;;;;10.10;8.98;;;;;;;23.36;100.00;101960.41;1972524;73;31005;-79
2021/07/19 21:49:40;;;;;;;8.85;7.50;;;;;;;23.17;100.00;101960.86;1971400;73;30948;-78
2021/07/19 21:55:04;;;;;;;8.73;7.92;;;;;;;23.34;100.00;101957.90;1971259;73;31466;-78
2021/07/19 22:00:43;;;;;;;7.92;7.15;;;;;;;23.41;100.00;101955.91;1971200;72;30952;-75
2021/07/19 22:06:44;;;;;;;8.23;7.28;;;;;;;23.52;100.00;101949.54;1971349;73;30979;-88
2021/07/19 22:12:25;;;;;;;8.60;7.70;;;;;;;23.56;100.00;101962.44;1971492;73;31424;-75
2021/07/19 22:18:17;;;;;;;7.78;7.05;;;;;;;23.66;100.00;101956.94;1971809;73;30990;-78
2021/07/19 22:24:07;;;;;;;8.55;7.78;;;;;;;23.54;100.00;101961.94;1972142;73;30937;-77
2021/07/19 22:30:05;;;;;;;8.45;7.47;;;;;;;23.39;100.00;101971.05;1972148;73;30918;-78
2021/07/19 22:35:53;;;;;;;9.73;7.33;;;;;;;23.44;100.00;101974.55;1972060;73;31024;-78
2021/07/19 22:41:50;;;;;;;8.50;7.58;;;;;;;23.36;100.00;101977.41;1972055;73;31047;-78
2021/07/19 22:47:36;;;;;;;9.93;7.92;;;;;;;23.26;100.00;101974.39;1972306;73;31009;-78
2021/07/19 22:53:03;;;;;;;9.00;7.62;;;;;;;23.26;100.00;101975.80;1970891;73;31150;-85
2021/07/19 22:58:28;;;;;;;9.00;7.03;;;;;;;23.07;100.00;101984.75;1972187;73;31009;-80
2021/07/19 23:04:14;;;;;;;8.25;6.90;;;;;;;22.76;100.00;101987.11;1934647;72;85704;-77
2021/07/19 23:09:40;;;;;;;10.40;7.53;;;;;;;22.55;100.00;101992.63;1971247;73;30990;-76
2021/07/19 23:15:07;;;;;;;10.32;7.80;;;;;;;22.64;100.00;101986.35;1972259;73;30967;-80
2021/07/19 23:20:33;;;;;;;8.63;7.25;;;;;;;22.55;100.00;101986.97;1969751;71;31525;-84
2021/07/19 23:26:03;;;;;;;10.08;7.83;;;;;;;22.73;100.00;101977.02;1972408;73;30917;-80
2021/07/19 23:31:31;;;;;;;8.48;7.35;;;;;;;22.40;100.00;101984.70;1972469;72;31549;-78
2021/07/19 23:36:56;;;;;;;10.95;7.97;;;;;;;22.17;100.00;101991.16;1971121;73;30988;-85
2021/07/19 23:42:23;;;;;;;11.85;9.23;;;;;;;22.24;100.00;101990.09;1972138;73;30927;-80
2021/07/19 23:47:49;;;;;;;9.63;7.35;;;;;;;22.21;100.00;101987.07;1972424;73;30928;-78
2021/07/19 23:53:15;;;;;;;9.10;7.35;;;;;;;21.98;100.00;101986.47;1971212;73;31433;-75
2021/07/19 23:58:42;;;;;;;10.00;8.28;;;;;;;21.82;100.00;101990.12;1972145;73;31013;-82
